This is the latest recevied weather packets stored in our database for station/object HP3ICC-22. If no packets are shown the sender has not sent any weather packets the latest 10 day(s).
| Time | Temp. | Humidity | Pressure | Rain* | Wind** | Luminosity | Snow |
|---|---|---|---|---|---|---|---|
| 1778024586 | 11.67° C | 88% | 1013 hPa | 0 mm | - | - | - |
| 1778023445 | 12.22° C | 77% | 1011 hPa | 0 mm | - | - | - |
| 1778023385 | 12.22° C | 77% | 1011 hPa | 0 mm | - | - | - |
| 1778022245 | 11.67° C | 87% | 1011 hPa | 0 mm | - | - | - |
| 1778022184 | 11.67° C | 87% | 1011 hPa | 0 mm | - | - | - |
| 1778021044 | 12.22° C | 77% | 1012 hPa | 0 mm | - | - | - |
| 1778020984 | 12.22° C | 77% | 1012 hPa | 0 mm | - | - | - |
| 1778019844 | 12.22° C | 77% | 1011 hPa | 0 mm | - | - | - |
| 1778019783 | 12.22° C | 77% | 1011 hPa | 0 mm | - | - | - |
| 1778018643 | 12.22° C | 77% | 1011 hPa | 0 mm | - | - | - |
| 1778018583 | 12.22° C | 77% | 1011 hPa | 0 mm | - | - | - |
| 1778017442 | 12.22° C | 77% | 1012 hPa | 0 mm | - | - | - |
| 1778017382 | 12.22° C | 77% | 1012 hPa | 0 mm | - | - | - |
| 1778016242 | 12.22° C | 80% | 1011 hPa | 0 mm | - | - | - |
| 1778016181 | 12.22° C | 80% | 1011 hPa | 0 mm | - | - | - |
| 1778015041 | 12.22° C | 78% | 1011 hPa | 0 mm | - | - | - |
| 1778014981 | 12.22° C | 78% | 1011 hPa | 0 mm | - | - | - |
| 1778013841 | 13.33° C | 77% | 1012 hPa | 0 mm | - | - | - |
| 1778013780 | 13.33° C | 77% | 1012 hPa | 0 mm | - | - | - |
| 1778012640 | 12.22° C | 82% | 1011 hPa | 0 mm | - | - | - |
| 1778012580 | 12.22° C | 82% | 1011 hPa | 0 mm | - | - | - |
| 1778011440 | 12.78° C | 82% | 1011 hPa | 0 mm | - | - | - |
| 1778011379 | 12.78° C | 82% | 1011 hPa | 0 mm | - | - | - |
| 1778010239 | 13.33° C | 77% | 1012 hPa | 0 mm | - | - | - |
| 1778010179 | 13.33° C | 77% | 1012 hPa | 0 mm | - | - | - |
* Rain latest hour (hover to see other rain measurements)
** Current wind speed in m/s (hover to see current wind gust speed)